createdAt,value
2017-01-18T00:00:13.766Z,2.53
2017-01-18T00:00:54.264Z,2.59
2017-01-18T00:01:34.745Z,2.69
2017-01-18T00:02:15.265Z,2.69
2017-01-18T00:02:55.787Z,2.46
2017-01-18T00:03:36.271Z,2.36
2017-01-18T00:04:16.776Z,2.46
2017-01-18T00:04:57.268Z,2.39
2017-01-18T00:05:37.806Z,2.46
2017-01-18T00:06:18.323Z,2.35
2017-01-18T00:06:58.828Z,2.43
2017-01-18T00:07:39.344Z,2.48
2017-01-18T00:08:19.795Z,2.45
2017-01-18T00:09:00.294Z,2.53
2017-01-18T00:09:40.809Z,2.59
2017-01-18T00:10:21.316Z,2.49
2017-01-18T00:11:01.804Z,2.54
2017-01-18T00:11:42.297Z,2.43
2017-01-18T00:12:22.803Z,2.45
2017-01-18T00:13:03.283Z,2.43
2017-01-18T00:13:43.797Z,2.27
2017-01-18T00:14:24.327Z,2.43
2017-01-18T00:15:04.820Z,2.46
2017-01-18T00:15:45.316Z,2.45
2017-01-18T00:16:25.807Z,2.53
2017-01-18T00:17:06.290Z,2.49
2017-01-18T00:17:46.796Z,2.35
2017-01-18T00:18:27.306Z,2.31
2017-01-18T00:19:07.817Z,2.43
2017-01-18T00:19:48.292Z,2.53
2017-01-18T00:20:28.801Z,2.49
2017-01-18T00:21:09.313Z,2.45
2017-01-18T00:21:49.817Z,2.45
2017-01-18T00:22:30.316Z,2.54
2017-01-18T00:23:10.859Z,2.52
2017-01-18T00:23:51.307Z,2.59
2017-01-18T00:24:31.801Z,2.46
2017-01-18T00:25:12.294Z,2.48
2017-01-18T00:25:52.809Z,2.45
2017-01-18T00:26:33.345Z,2.41
2017-01-18T00:27:13.844Z,2.46
2017-01-18T00:27:54.343Z,2.49
2017-01-18T00:28:34.821Z,2.56
2017-01-18T00:29:15.316Z,2.53
2017-01-18T00:29:55.790Z,2.48
2017-01-18T00:30:36.294Z,2.54
2017-01-18T00:31:16.829Z,2.46
2017-01-18T00:31:57.310Z,2.54
2017-01-18T00:32:37.789Z,2.53
2017-01-18T00:33:18.265Z,2.59
2017-01-18T00:33:58.734Z,2.59
2017-01-18T00:34:39.217Z,2.66
2017-01-18T00:35:19.678Z,2.54
2017-01-18T00:36:00.185Z,2.6
2017-01-18T00:36:40.628Z,2.6
2017-01-18T00:37:21.126Z,2.63
2017-01-18T00:38:01.632Z,2.38
2017-01-18T00:38:42.130Z,2.24
2017-01-18T00:39:22.669Z,2.3
2017-01-18T00:40:03.145Z,2.43
2017-01-18T00:40:43.645Z,2.59
2017-01-18T00:41:24.152Z,2.64
2017-01-18T00:42:04.668Z,2.61
2017-01-18T00:42:45.143Z,2.57
2017-01-18T00:43:25.631Z,2.49
2017-01-18T00:44:06.132Z,2.41
2017-01-18T00:44:46.642Z,2.53
2017-01-18T00:45:27.133Z,2.6
2017-01-18T00:46:07.623Z,2.71
2017-01-18T00:46:48.120Z,2.52
2017-01-18T00:47:28.675Z,2.49
2017-01-18T00:48:09.189Z,2.54
2017-01-18T00:48:49.708Z,2.49
2017-01-18T00:49:30.212Z,2.63
2017-01-18T00:50:10.706Z,2.67
2017-01-18T00:50:51.246Z,2.64
2017-01-18T00:51:31.758Z,2.64
2017-01-18T00:52:12.243Z,2.54
2017-01-18T00:52:52.749Z,2.59
2017-01-18T00:53:33.263Z,2.61
2017-01-18T00:54:13.758Z,2.53
2017-01-18T00:54:54.262Z,2.46
2017-01-18T00:55:34.762Z,2.53
2017-01-18T00:56:15.259Z,2.59
2017-01-18T00:56:55.760Z,2.71
2017-01-18T00:57:36.269Z,2.72
2017-01-18T00:58:16.768Z,2.67
2017-01-18T00:58:57.253Z,2.72
2017-01-18T00:59:37.749Z,2.82
2017-01-18T01:00:18.232Z,2.71
2017-01-18T01:00:58.749Z,2.72
2017-01-18T01:01:39.272Z,2.72
2017-01-18T01:02:19.760Z,2.59
2017-01-18T01:03:00.251Z,2.69
2017-01-18T01:03:40.747Z,2.63
2017-01-18T01:04:21.285Z,2.61
2017-01-18T01:05:01.745Z,2.63
2017-01-18T01:05:42.221Z,2.72
2017-01-18T01:06:22.734Z,2.84
2017-01-18T01:07:03.212Z,2.92
2017-01-18T01:07:43.717Z,2.87
2017-01-18T01:08:24.229Z,2.78
2017-01-18T01:09:04.723Z,2.72
2017-01-18T01:09:45.230Z,2.75
2017-01-18T01:10:25.746Z,2.72
2017-01-18T01:11:06.232Z,2.9
2017-01-18T01:11:46.741Z,2.85
2017-01-18T01:12:27.243Z,2.75
2017-01-18T01:13:07.776Z,2.67
2017-01-18T01:13:48.293Z,2.84
2017-01-18T01:14:28.781Z,2.9
2017-01-18T01:15:09.280Z,2.9
2017-01-18T01:15:49.944Z,3.02
2017-01-18T01:16:30.430Z,2.99
2017-01-18T01:17:10.906Z,2.99
2017-01-18T01:17:51.419Z,2.75
2017-01-18T01:18:31.890Z,2.57
2017-01-18T01:19:12.399Z,2.66
2017-01-18T01:19:52.886Z,2.78
2017-01-18T01:20:33.388Z,2.9
2017-01-18T01:21:13.915Z,2.82
2017-01-18T01:21:54.394Z,2.87
2017-01-18T01:22:34.911Z,2.99
2017-01-18T01:23:15.438Z,3.05
2017-01-18T01:23:55.949Z,2.97
2017-01-18T01:24:36.474Z,2.93
2017-01-18T01:25:16.990Z,2.96
2017-01-18T01:25:57.503Z,2.77
2017-01-18T01:26:37.992Z,2.89
2017-01-18T01:27:18.518Z,2.79
2017-01-18T01:27:59.013Z,2.82
2017-01-18T01:28:39.513Z,2.81
2017-01-18T01:29:20.034Z,2.72
2017-01-18T01:30:00.501Z,2.79
2017-01-18T01:30:41.058Z,2.75
2017-01-18T01:31:21.518Z,2.78
2017-01-18T01:32:02.025Z,2.85
2017-01-18T01:32:42.538Z,2.84
2017-01-18T01:33:23.011Z,2.67
2017-01-18T01:34:03.488Z,2.69
2017-01-18T01:34:44.007Z,2.75
2017-01-18T01:35:24.482Z,2.82
2017-01-18T01:36:04.992Z,2.84
2017-01-18T01:36:45.482Z,2.72
2017-01-18T01:37:26.007Z,2.66
2017-01-18T01:38:06.451Z,2.67
2017-01-18T01:38:46.962Z,2.82
2017-01-18T01:39:27.454Z,2.63
2017-01-18T01:40:07.989Z,2.66
2017-01-18T01:40:48.461Z,2.72
2017-01-18T01:41:28.970Z,2.81
2017-01-18T01:42:09.469Z,2.77
2017-01-18T01:42:49.968Z,2.82
2017-01-18T01:43:30.450Z,2.84
2017-01-18T01:45:43.736Z,2.71
2017-01-18T01:46:24.211Z,2.63
2017-01-18T01:47:04.707Z,2.71
2017-01-18T01:47:45.240Z,2.61
2017-01-18T01:48:25.712Z,2.85
2017-01-18T01:49:06.261Z,2.92
2017-01-18T01:49:46.718Z,2.81
2017-01-18T01:50:27.220Z,2.95
2017-01-18T01:51:07.697Z,2.64
2017-01-18T01:51:48.186Z,2.61
2017-01-18T01:52:28.698Z,2.74
2017-01-18T01:53:09.191Z,2.69
2017-01-18T01:53:49.674Z,2.64
2017-01-18T01:54:30.130Z,2.56
2017-01-18T01:55:10.627Z,2.71
2017-01-18T01:55:51.078Z,2.57
2017-01-18T01:56:31.600Z,2.74
2017-01-18T01:57:12.070Z,2.69
2017-01-18T01:59:10.348Z,2.75
2017-01-18T01:59:50.778Z,2.61
2017-01-18T02:00:31.264Z,2.72
2017-01-18T02:01:11.773Z,2.72
2017-01-18T02:01:52.278Z,2.48
2017-01-18T02:02:32.755Z,2.61
2017-01-18T02:03:13.272Z,2.59
2017-01-18T02:03:53.763Z,2.61
2017-01-18T02:04:34.339Z,2.53
2017-01-18T02:05:14.807Z,2.63
2017-01-18T02:05:55.310Z,2.59
2017-01-18T02:06:35.737Z,2.59
2017-01-18T02:07:16.222Z,2.59
2017-01-18T02:07:56.751Z,2.61
2017-01-18T02:08:37.220Z,2.69
2017-01-18T02:09:17.713Z,2.63
2017-01-18T02:09:58.213Z,2.74
2017-01-18T02:10:38.738Z,2.61
2017-01-18T02:11:19.352Z,2.63
2017-01-18T02:11:59.900Z,2.63
2017-01-18T02:12:40.390Z,2.49
2017-01-18T02:13:20.880Z,2.45
2017-01-18T02:14:01.347Z,2.48
2017-01-18T02:14:41.809Z,2.43
2017-01-18T02:15:22.278Z,2.6
2017-01-18T02:16:02.787Z,2.6
2017-01-18T02:16:43.272Z,2.6
2017-01-18T02:17:23.783Z,2.67
2017-01-18T02:18:04.301Z,2.64
2017-01-18T02:18:44.796Z,2.69
2017-01-18T02:19:25.328Z,2.67
2017-01-18T02:20:05.851Z,2.71
2017-01-18T02:20:46.342Z,2.71
2017-01-18T02:21:26.809Z,2.59
2017-01-18T02:22:07.291Z,2.56
2017-01-18T02:22:47.753Z,2.46
2017-01-18T02:23:28.236Z,2.54
2017-01-18T02:24:08.727Z,2.39
2017-01-18T02:24:49.231Z,2.53
2017-01-18T02:25:29.755Z,2.48
2017-01-18T02:26:10.228Z,2.53
2017-01-18T02:26:50.680Z,2.59
2017-01-18T02:27:31.214Z,2.59
2017-01-18T02:28:11.723Z,2.59
2017-01-18T02:28:52.209Z,2.53
2017-01-18T02:29:32.812Z,2.63
2017-01-18T02:30:13.331Z,2.59
2017-01-18T02:30:53.799Z,2.69
2017-01-18T02:31:34.303Z,2.72
2017-01-18T02:32:14.816Z,2.71
2017-01-18T02:32:55.462Z,2.67
2017-01-18T02:33:35.875Z,2.61
2017-01-18T02:34:16.412Z,2.6
2017-01-18T02:34:56.928Z,2.64
2017-01-18T02:35:37.429Z,2.69
2017-01-18T02:36:17.918Z,2.66
2017-01-18T02:36:58.391Z,2.6
2017-01-18T02:37:38.899Z,2.66
2017-01-18T02:38:19.368Z,2.54
2017-01-18T02:38:59.881Z,2.67
2017-01-18T02:39:40.420Z,2.6
2017-01-18T02:40:20.906Z,2.67
2017-01-18T02:41:01.530Z,2.61
2017-01-18T02:41:41.901Z,2.74
2017-01-18T02:42:22.390Z,2.49
2017-01-18T02:43:02.892Z,2.57
2017-01-18T02:43:43.371Z,2.64
2017-01-18T02:44:23.868Z,2.61
2017-01-18T02:45:04.333Z,2.63
2017-01-18T02:45:44.817Z,2.72
2017-01-18T02:46:25.322Z,2.72
2017-01-18T02:47:05.835Z,2.81
2017-01-18T02:47:46.351Z,2.84
2017-01-18T02:48:26.846Z,2.74
2017-01-18T02:49:07.321Z,2.66
2017-01-18T02:49:47.814Z,2.82
2017-01-18T02:50:28.337Z,2.67
2017-01-18T02:51:08.849Z,2.72
2017-01-18T02:51:49.325Z,2.74
2017-01-18T02:52:29.808Z,2.67
2017-01-18T02:53:10.302Z,2.71
2017-01-18T02:53:50.801Z,2.59
2017-01-18T02:54:31.324Z,2.67
2017-01-18T02:55:11.819Z,2.71
2017-01-18T02:55:52.329Z,2.71
2017-01-18T02:56:32.829Z,2.82
2017-01-18T02:57:13.345Z,2.81
2017-01-18T02:57:53.890Z,2.74
2017-01-18T02:58:34.359Z,2.63
2017-01-18T02:59:14.880Z,2.67
2017-01-18T02:59:55.336Z,2.74
2017-01-18T03:00:35.852Z,2.69
2017-01-18T03:01:16.281Z,2.79
2017-01-18T03:01:56.762Z,2.69
2017-01-18T03:02:37.260Z,2.59
2017-01-18T03:03:17.772Z,2.63
2017-01-18T03:03:58.265Z,2.46
2017-01-18T03:04:38.756Z,2.43
2017-01-18T03:05:19.289Z,2.46
2017-01-18T03:05:59.735Z,2.57
2017-01-18T03:06:40.213Z,2.6
2017-01-18T03:07:20.740Z,2.72
2017-01-18T03:08:01.203Z,2.52
2017-01-18T03:08:41.734Z,2.61
2017-01-18T03:09:22.224Z,2.59
2017-01-18T03:10:02.739Z,2.71
2017-01-18T03:10:43.244Z,2.67
2017-01-18T03:11:23.733Z,2.63
2017-01-18T03:12:04.269Z,2.75
2017-01-18T03:12:44.718Z,2.74
2017-01-18T03:13:25.324Z,2.74
2017-01-18T03:14:05.772Z,2.84
2017-01-18T03:14:46.173Z,2.87
2017-01-18T03:15:26.655Z,2.61
2017-01-18T03:16:07.157Z,2.64
2017-01-18T03:16:47.640Z,2.74
2017-01-18T03:17:28.157Z,2.59
2017-01-18T03:18:08.624Z,2.63
2017-01-18T03:18:49.108Z,2.49
2017-01-18T03:19:29.614Z,2.38
2017-01-18T03:20:10.135Z,2.43
2017-01-18T03:20:50.616Z,2.54
2017-01-18T03:21:31.122Z,2.45
2017-01-18T03:22:11.628Z,2.41
2017-01-18T03:22:52.139Z,2.54
2017-01-18T03:23:32.621Z,2.56
2017-01-18T03:24:13.112Z,2.61
2017-01-18T03:24:53.616Z,2.71
2017-01-18T03:25:34.119Z,2.69
2017-01-18T03:26:14.624Z,2.67
2017-01-18T03:26:55.120Z,2.66
2017-01-18T03:27:35.600Z,2.64
2017-01-18T03:28:16.082Z,2.71
2017-01-18T03:28:56.600Z,2.66
2017-01-18T03:29:37.094Z,2.64
2017-01-18T03:30:17.582Z,2.71
2017-01-18T03:30:58.072Z,2.72
2017-01-18T03:31:38.573Z,2.74
2017-01-18T03:32:19.068Z,2.75
2017-01-18T03:32:59.587Z,2.84
2017-01-18T03:33:40.099Z,2.87
2017-01-18T03:34:20.592Z,2.77
2017-01-18T03:35:01.109Z,2.63
2017-01-18T03:35:41.625Z,2.61
2017-01-18T03:36:22.136Z,2.61
2017-01-18T03:37:02.622Z,2.63
2017-01-18T03:37:43.089Z,2.72
2017-01-18T03:38:23.598Z,2.67
2017-01-18T03:39:04.108Z,2.67
2017-01-18T03:39:44.611Z,2.66
2017-01-18T03:40:25.073Z,2.67
2017-01-18T03:41:05.586Z,2.61
2017-01-18T03:41:46.110Z,2.69
2017-01-18T03:42:26.616Z,2.6
2017-01-18T03:43:07.110Z,2.56
2017-01-18T03:43:47.590Z,2.71
2017-01-18T03:44:28.075Z,2.66
2017-01-18T03:45:08.577Z,2.63
2017-01-18T03:45:49.105Z,2.6
2017-01-18T03:46:29.581Z,2.6
2017-01-18T03:47:10.064Z,2.61
2017-01-18T03:47:50.558Z,2.57
2017-01-18T03:48:31.054Z,2.67
2017-01-18T03:49:11.586Z,2.64
2017-01-18T03:49:52.112Z,2.57
2017-01-18T03:50:32.601Z,2.56
2017-01-18T03:51:13.110Z,2.63
2017-01-18T03:51:53.623Z,2.54
2017-01-18T03:52:34.117Z,2.69
2017-01-18T03:53:14.642Z,2.81
2017-01-18T03:53:55.091Z,2.66
2017-01-18T03:54:35.573Z,2.67
2017-01-18T03:55:16.063Z,2.63
2017-01-18T03:55:56.640Z,2.74
2017-01-18T03:56:37.168Z,2.74
2017-01-18T03:57:17.646Z,2.72
2017-01-18T03:57:58.131Z,2.74
2017-01-18T03:58:38.666Z,2.67
2017-01-18T03:59:19.159Z,2.74
2017-01-18T03:59:59.665Z,2.69
2017-01-18T04:00:40.181Z,2.77
2017-01-18T04:01:20.677Z,2.82
2017-01-18T04:02:01.150Z,2.77
2017-01-18T04:02:41.865Z,2.74
2017-01-18T04:03:22.367Z,2.81
2017-01-18T04:04:02.843Z,2.71
2017-01-18T04:04:43.341Z,2.71
2017-01-18T04:05:23.854Z,2.57
2017-01-18T04:06:04.327Z,2.56
2017-01-18T04:06:44.833Z,2.61
2017-01-18T04:07:25.318Z,2.59
2017-01-18T04:08:05.806Z,2.49
2017-01-18T04:08:46.328Z,2.66
2017-01-18T04:09:26.804Z,2.6
2017-01-18T04:10:07.311Z,2.72
2017-01-18T04:10:47.785Z,2.61
2017-01-18T04:11:28.308Z,2.54
2017-01-18T04:12:08.800Z,2.42
2017-01-18T04:12:49.288Z,2.54
2017-01-18T04:13:29.786Z,2.46
2017-01-18T04:14:10.289Z,2.35
2017-01-18T04:14:50.775Z,2.35
2017-01-18T04:15:31.310Z,2.43
2017-01-18T04:16:11.769Z,2.45
2017-01-18T04:16:52.311Z,2.2
2017-01-18T04:17:32.839Z,2.2
2017-01-18T04:18:13.301Z,2.3
2017-01-18T04:18:53.788Z,2.28
2017-01-18T04:19:34.302Z,2.18
2017-01-18T04:20:14.795Z,2.25
2017-01-18T04:20:55.314Z,2.23
2017-01-18T04:21:35.795Z,2.31
2017-01-18T04:22:16.342Z,2.31
2017-01-18T04:22:56.791Z,2.34
2017-01-18T04:23:37.269Z,2.28
2017-01-18T04:24:17.783Z,2.2
2017-01-18T04:24:58.279Z,2.39
2017-01-18T04:25:38.778Z,2.34
2017-01-18T04:26:19.285Z,2.34
2017-01-18T04:26:59.782Z,2.38
2017-01-18T04:27:40.291Z,2.35
2017-01-18T04:28:20.793Z,2.3
2017-01-18T04:29:01.291Z,2.43
2017-01-18T04:29:41.779Z,2.54
2017-01-18T04:30:22.307Z,2.43
2017-01-18T04:31:02.754Z,2.45
2017-01-18T04:31:43.244Z,2.43
2017-01-18T04:32:23.732Z,2.48
2017-01-18T04:33:04.216Z,2.59
2017-01-18T04:33:44.703Z,2.45
2017-01-18T04:34:25.208Z,2.36
2017-01-18T04:35:05.679Z,2.31
2017-01-18T04:35:46.173Z,2.41
2017-01-18T04:36:26.668Z,2.34
2017-01-18T04:37:07.156Z,2.38
2017-01-18T04:37:47.661Z,2.42
2017-01-18T04:38:28.161Z,2.45
2017-01-18T04:39:08.659Z,2.52
2017-01-18T04:39:49.153Z,2.54
2017-01-18T04:40:29.659Z,2.52
2017-01-18T04:41:10.154Z,2.49
2017-01-18T04:41:50.660Z,2.46
2017-01-18T04:42:31.144Z,2.49
2017-01-18T04:43:11.665Z,2.57
2017-01-18T04:43:52.187Z,2.31
2017-01-18T04:44:32.666Z,2.42
2017-01-18T04:45:13.160Z,2.38
2017-01-18T04:45:53.634Z,2.52
2017-01-18T04:46:34.167Z,2.41
2017-01-18T04:47:14.639Z,2.45
2017-01-18T04:47:55.111Z,2.41
2017-01-18T04:48:35.610Z,2.49
2017-01-18T04:49:16.149Z,2.49
2017-01-18T04:49:56.658Z,2.57
2017-01-18T04:50:37.169Z,2.53
2017-01-18T04:51:17.680Z,2.59
2017-01-18T04:51:58.171Z,2.48
2017-01-18T04:52:38.671Z,2.34
2017-01-18T04:53:19.165Z,2.38
2017-01-18T04:53:59.671Z,2.3
2017-01-18T04:54:40.167Z,2.45
2017-01-18T04:55:20.695Z,2.42
2017-01-18T04:56:01.181Z,2.16
2017-01-18T04:56:41.690Z,2.34
2017-01-18T04:57:22.174Z,2.25
2017-01-18T04:58:02.717Z,2.2
2017-01-18T04:58:43.187Z,2.09
2017-01-18T04:59:23.714Z,2.03
2017-01-18T05:00:04.192Z,2.1
2017-01-18T05:00:44.688Z,2.1
2017-01-18T05:01:25.186Z,2.12
2017-01-18T05:02:05.667Z,2.12
2017-01-18T05:02:46.179Z,2.12
2017-01-18T05:03:26.675Z,1.9
2017-01-18T05:04:07.169Z,2.07
2017-01-18T05:04:47.634Z,2.07
2017-01-18T05:05:28.142Z,2.1
2017-01-18T05:06:08.634Z,2.02
2017-01-18T05:06:49.136Z,2.12
2017-01-18T05:07:29.619Z,2.2
2017-01-18T05:08:10.115Z,2.16
2017-01-18T05:08:50.606Z,2.1
2017-01-18T05:09:31.083Z,2.06
2017-01-18T05:10:11.600Z,2.09
2017-01-18T05:10:52.093Z,1.93
2017-01-18T05:11:32.592Z,1.86
2017-01-18T05:12:13.097Z,1.95
2017-01-18T05:12:53.614Z,2.09
2017-01-18T05:13:34.085Z,2.1
2017-01-18T05:14:14.583Z,1.91
2017-01-18T05:14:55.043Z,1.79
2017-01-18T05:15:35.537Z,1.83
2017-01-18T05:16:16.060Z,2
2017-01-18T05:16:56.556Z,1.77
2017-01-18T05:17:37.033Z,1.8
2017-01-18T05:18:17.523Z,1.81
2017-01-18T05:18:58.022Z,1.9
2017-01-18T05:19:38.524Z,2.1
2017-01-18T05:20:19.033Z,2.2
2017-01-18T05:20:59.547Z,2.1
2017-01-18T05:21:40.036Z,2.07
2017-01-18T05:22:20.524Z,2.12
2017-01-18T05:23:01.020Z,2.18
2017-01-18T05:23:41.547Z,1.98
2017-01-18T05:24:22.020Z,2.09
2017-01-18T05:25:02.490Z,2.06
2017-01-18T05:25:43.007Z,2.02
2017-01-18T05:26:23.495Z,2.07
2017-01-18T05:27:03.997Z,1.91
2017-01-18T05:27:44.515Z,1.95
2017-01-18T05:28:24.964Z,2
2017-01-18T05:29:05.473Z,1.93
2017-01-18T05:29:45.975Z,2
2017-01-18T05:30:26.487Z,2.16
2017-01-18T05:31:06.959Z,2
2017-01-18T05:31:47.466Z,1.8
2017-01-18T05:32:28.025Z,1.72
2017-01-18T05:33:08.471Z,1.87
2017-01-18T05:33:48.950Z,1.73
2017-01-18T05:34:29.443Z,1.81
2017-01-18T05:35:09.960Z,1.88
2017-01-18T05:35:50.439Z,1.83
2017-01-18T05:36:30.921Z,1.79
2017-01-18T05:37:11.411Z,1.69
2017-01-18T05:37:51.905Z,1.7
2017-01-18T05:38:32.390Z,1.65
2017-01-18T05:39:12.913Z,1.79
2017-01-18T05:39:53.401Z,1.9
2017-01-18T05:40:33.917Z,1.9
2017-01-18T05:41:14.412Z,1.86
2017-01-18T05:41:54.890Z,1.88
2017-01-18T05:42:35.383Z,2.02
2017-01-18T05:43:15.889Z,1.79
2017-01-18T05:43:56.385Z,1.63
2017-01-18T05:44:36.894Z,1.8
2017-01-18T05:45:17.406Z,1.79
2017-01-18T05:45:57.880Z,2
2017-01-18T05:46:38.387Z,1.99
2017-01-18T05:47:18.883Z,1.98
2017-01-18T05:47:59.413Z,1.91
2017-01-18T05:48:39.916Z,2
2017-01-18T05:49:20.421Z,1.95
2017-01-18T05:50:00.900Z,2.07
2017-01-18T05:50:41.387Z,1.91
2017-01-18T05:52:54.621Z,2.21
2017-01-18T05:53:35.115Z,2.12
2017-01-18T05:54:15.632Z,1.93
2017-01-18T05:54:56.146Z,2.06
2017-01-18T05:55:36.673Z,2.09
2017-01-18T05:56:17.162Z,2.03
2017-01-18T05:56:57.677Z,2.1
2017-01-18T05:57:38.149Z,2.12
2017-01-18T05:58:18.642Z,2.1
2017-01-18T05:58:59.149Z,2
2017-01-18T05:59:39.646Z,2.02
2017-01-18T06:00:20.145Z,2.09
2017-01-18T06:01:00.646Z,2.23
2017-01-18T06:01:41.138Z,2.23
2017-01-18T06:02:21.627Z,2.16
2017-01-18T06:03:02.133Z,2.12
2017-01-18T06:03:42.621Z,2.18
2017-01-18T06:04:23.124Z,2.23
2017-01-18T06:05:03.618Z,2.09
2017-01-18T06:05:44.145Z,1.88
2017-01-18T06:06:24.604Z,1.86
2017-01-18T06:07:05.088Z,1.95
2017-01-18T06:07:45.556Z,2.05
2017-01-18T06:08:26.053Z,1.98
2017-01-18T06:09:06.580Z,2.05
2017-01-18T06:09:47.034Z,2.03
2017-01-18T06:10:27.495Z,1.98
2017-01-18T06:11:08.046Z,2.09
2017-01-18T06:11:48.503Z,2.07
2017-01-18T06:12:29.001Z,2.07
2017-01-18T06:13:09.511Z,2.03
2017-01-18T06:13:50.043Z,2
2017-01-18T06:14:30.492Z,1.98
2017-01-18T06:15:11.000Z,1.95
2017-01-18T06:15:51.476Z,2.07
2017-01-18T06:16:32.017Z,2
2017-01-18T06:17:12.489Z,1.86
2017-01-18T06:17:52.986Z,1.87
2017-01-18T06:18:33.876Z,2
2017-01-18T06:19:14.369Z,2
2017-01-18T06:19:54.857Z,2.05
2017-01-18T06:20:35.356Z,2.05
2017-01-18T06:21:15.834Z,1.98
2017-01-18T06:21:56.294Z,1.79
2017-01-18T06:22:36.808Z,1.83
2017-01-18T06:23:17.305Z,1.8
2017-01-18T06:23:57.825Z,1.83
2017-01-18T06:24:38.323Z,1.79
2017-01-18T06:25:18.821Z,1.86
2017-01-18T06:25:59.339Z,1.91
2017-01-18T06:26:39.830Z,1.9
2017-01-18T06:27:20.344Z,2.02
2017-01-18T06:28:00.830Z,2.06
2017-01-18T06:28:41.347Z,2.2
2017-01-18T06:29:21.856Z,2.2
2017-01-18T06:30:02.331Z,2.07
2017-01-18T06:32:00.509Z,2.07
2017-01-18T06:32:41.002Z,2.21
2017-01-18T06:33:21.485Z,2.16
2017-01-18T06:34:01.992Z,2.12
2017-01-18T06:34:42.469Z,1.88
2017-01-18T06:35:22.988Z,2.06
2017-01-18T06:36:03.508Z,2.14
2017-01-18T06:36:44.007Z,2.25
2017-01-18T06:37:24.493Z,2.28
2017-01-18T06:38:04.949Z,2.23
2017-01-18T06:38:45.495Z,2.31
2017-01-18T06:39:26.012Z,2.35
2017-01-18T06:40:06.516Z,2.24
2017-01-18T06:40:47.047Z,2.21
2017-01-18T06:41:28.198Z,2.17
2017-01-18T06:42:08.028Z,2.35
2017-01-18T06:42:48.532Z,2.21
2017-01-18T06:43:29.015Z,2.31
2017-01-18T06:44:09.551Z,2.38
2017-01-18T06:44:50.038Z,2.31
2017-01-18T06:45:30.526Z,2.42
2017-01-18T06:46:10.978Z,2.39
2017-01-18T06:46:51.582Z,2.36
2017-01-18T06:47:31.973Z,2.34
2017-01-18T06:48:12.494Z,2.31
2017-01-18T06:48:53.041Z,2.25
2017-01-18T06:49:33.521Z,2.38
2017-01-18T06:50:14.075Z,2.45
2017-01-18T06:50:54.546Z,2.56
2017-01-18T06:51:35.038Z,2.46
2017-01-18T06:52:15.646Z,2.3
2017-01-18T06:52:56.664Z,2.27
2017-01-18T06:53:37.024Z,2.28
2017-01-18T06:54:17.553Z,2.34
2017-01-18T06:54:58.109Z,2.48
2017-01-18T06:56:24.203Z,2.64
2017-01-18T06:57:04.352Z,2.69
2017-01-18T06:57:44.918Z,2.49
2017-01-18T06:58:25.409Z,2.66
2017-01-18T06:59:05.938Z,2.59
2017-01-18T06:59:46.590Z,2.64
2017-01-18T07:00:26.996Z,2.57
2017-01-18T07:01:07.535Z,2.74
2017-01-18T07:01:48.837Z,2.72
2017-01-18T07:02:29.551Z,2.57
2017-01-18T07:03:10.042Z,2.56
2017-01-18T07:03:50.494Z,2.54
2017-01-18T07:04:31.032Z,2.52
2017-01-18T07:05:15.098Z,2.61
2017-01-18T07:05:55.791Z,2.71
2017-01-18T07:06:37.121Z,3.55
2017-01-18T07:07:19.478Z,3.79
2017-01-18T07:07:58.249Z,3.93
2017-01-18T07:08:38.709Z,3.97
2017-01-18T07:09:19.259Z,3.42
2017-01-18T07:09:59.696Z,3.11
2017-01-18T07:10:40.180Z,3.76
2017-01-18T07:11:20.676Z,4.29
2017-01-18T07:12:01.179Z,4.26
2017-01-18T07:12:42.452Z,3.93
2017-01-18T07:13:22.950Z,3.76
2017-01-18T07:14:03.450Z,3.6
2017-01-18T07:14:43.917Z,3.4
2017-01-18T07:15:24.397Z,3.21
2017-01-18T07:16:04.892Z,3.28
2017-01-18T07:16:45.374Z,3.33
2017-01-18T07:17:25.898Z,3.23
2017-01-18T07:18:06.351Z,3.55
2017-01-18T07:18:46.855Z,3.58
2017-01-18T07:19:27.369Z,3.32
2017-01-18T07:20:07.900Z,3.96
2017-01-18T07:20:48.337Z,3.72
2017-01-18T07:21:28.822Z,3.33
2017-01-18T07:22:09.367Z,3.2
2017-01-18T07:22:49.906Z,3.33
2017-01-18T07:23:30.395Z,3.28
2017-01-18T07:24:10.985Z,3.65
2017-01-18T07:24:51.447Z,3.6
2017-01-18T07:25:32.052Z,3.42
2017-01-18T07:26:12.555Z,3.32
2017-01-18T07:26:52.981Z,3.43
2017-01-18T07:27:33.500Z,3.4
2017-01-18T07:28:13.995Z,3.28
2017-01-18T07:28:54.445Z,3.18
2017-01-18T07:29:35.025Z,3.23
2017-01-18T07:30:16.164Z,3.35
2017-01-18T07:30:56.165Z,3.29
2017-01-18T07:31:36.606Z,3.26
2017-01-18T07:32:17.155Z,3.35
2017-01-18T07:32:57.772Z,3.43
2017-01-18T07:33:38.259Z,3.24
2017-01-18T07:34:18.778Z,3.43
2017-01-18T07:34:59.312Z,3.15
2017-01-18T07:35:39.849Z,3.17
2017-01-18T07:36:20.298Z,3.21
2017-01-18T07:37:00.841Z,3.03
2017-01-18T07:37:41.357Z,3.11
2017-01-18T07:38:21.853Z,3.2
2017-01-18T07:39:02.346Z,3.26
2017-01-18T07:39:42.842Z,3.5
2017-01-18T07:40:23.520Z,3.75
2017-01-18T07:41:04.010Z,3.79
2017-01-18T07:41:44.513Z,3.8
2017-01-18T07:42:24.986Z,3.68
2017-01-18T07:43:05.443Z,3.35
2017-01-18T07:43:45.942Z,3.76
2017-01-18T07:44:27.086Z,4.09
2017-01-18T07:45:08.834Z,4.04
2017-01-18T07:45:49.274Z,3.8
2017-01-18T07:46:29.787Z,3.73
2017-01-18T07:47:10.423Z,3.52
2017-01-18T07:47:50.954Z,3.23
2017-01-18T07:48:31.405Z,3.21
2017-01-18T07:49:11.888Z,3.18
2017-01-18T07:49:52.416Z,3.32
2017-01-18T07:50:33.072Z,3.47
2017-01-18T07:51:13.484Z,3.33
2017-01-18T07:51:53.982Z,3.23
2017-01-18T07:52:34.509Z,3.14
2017-01-18T07:53:14.996Z,3.15
2017-01-18T07:53:55.423Z,3.2
2017-01-18T07:54:36.009Z,3.39
2017-01-18T07:55:16.499Z,4.05
2017-01-18T07:55:56.927Z,4.34
2017-01-18T07:56:37.432Z,4.2
2017-01-18T07:57:17.981Z,3.97
2017-01-18T07:57:58.493Z,3.8
2017-01-18T07:58:39.000Z,3.29
2017-01-18T07:59:19.493Z,3.11
2017-01-18T08:00:00.037Z,3.05
2017-01-18T08:00:40.539Z,2.97
2017-01-18T08:01:21.020Z,3.17
2017-01-18T08:02:01.490Z,3.26
2017-01-18T08:02:41.954Z,3.31
2017-01-18T08:03:22.507Z,3.35
2017-01-18T08:04:03.063Z,3.2
2017-01-18T08:04:43.488Z,3.13
2017-01-18T08:05:23.975Z,3.13
2017-01-18T08:06:04.485Z,3.17
2017-01-18T08:06:45.084Z,3.24
2017-01-18T08:07:25.495Z,3.23
2017-01-18T08:08:05.966Z,3.26
2017-01-18T08:08:46.468Z,3.05
2017-01-18T08:09:26.938Z,3.17
2017-01-18T08:10:07.430Z,3.05
2017-01-18T08:10:47.900Z,3.1
2017-01-18T08:11:28.393Z,3.2
2017-01-18T08:12:08.870Z,3.29
2017-01-18T08:12:49.386Z,3.29
2017-01-18T08:13:29.868Z,3.47
2017-01-18T08:14:10.329Z,3.4
2017-01-18T08:14:50.847Z,3.48
2017-01-18T08:15:31.326Z,3.54
2017-01-18T08:16:11.790Z,3.54
2017-01-18T08:16:52.264Z,3.32
2017-01-18T08:17:32.788Z,3.5
2017-01-18T08:18:13.356Z,3.33
2017-01-18T08:18:53.738Z,3.42
2017-01-18T08:19:34.211Z,3.6
2017-01-18T08:20:14.756Z,3.58
2017-01-18T08:20:55.250Z,3.58
2017-01-18T08:21:35.742Z,3.47
2017-01-18T08:22:16.308Z,3.58
2017-01-18T08:22:56.703Z,3.65
2017-01-18T08:23:37.169Z,3.65
2017-01-18T08:24:17.664Z,3.78
2017-01-18T08:24:58.249Z,3.58
2017-01-18T08:25:39.277Z,3.32
2017-01-18T08:26:19.616Z,3.18
2017-01-18T08:27:00.101Z,3.21
2017-01-18T08:27:40.643Z,3.84
2017-01-18T08:28:21.305Z,4.3
2017-01-18T08:29:01.792Z,4.05
2017-01-18T08:29:43.150Z,3.96
2017-01-18T08:30:23.642Z,3.98
2017-01-18T08:31:04.078Z,3.58
2017-01-18T08:31:44.590Z,3.6
2017-01-18T08:32:25.059Z,3.73
2017-01-18T08:33:05.564Z,3.72
2017-01-18T08:33:46.097Z,3.45
2017-01-18T08:34:26.593Z,3.62
2017-01-18T08:35:07.035Z,3.28
2017-01-18T08:35:47.502Z,3.32
2017-01-18T08:36:28.016Z,3.54
2017-01-18T08:37:08.582Z,3.43
2017-01-18T08:37:49.206Z,3.4
2017-01-18T08:38:29.664Z,3.6
2017-01-18T08:39:10.208Z,4
2017-01-18T08:39:50.894Z,4.27
2017-01-18T08:40:31.458Z,4.78
2017-01-18T08:41:11.998Z,4.52
2017-01-18T08:41:52.460Z,4.41
2017-01-18T08:42:32.962Z,4.34
2017-01-18T08:43:13.406Z,4.58
2017-01-18T08:43:53.904Z,4.51
2017-01-18T08:44:34.389Z,4.14
2017-01-18T08:45:14.898Z,4.04
2017-01-18T08:45:55.537Z,3.73
2017-01-18T08:46:35.983Z,3.83
2017-01-18T08:47:16.517Z,3.98
2017-01-18T08:47:57.085Z,4.11
2017-01-18T08:48:37.640Z,4.16
2017-01-18T08:49:18.125Z,4.24
2017-01-18T08:49:58.629Z,4.15
2017-01-18T08:50:39.105Z,4.09
2017-01-18T08:51:19.617Z,4.05
2017-01-18T08:52:00.426Z,3.98
2017-01-18T08:52:40.914Z,3.91
2017-01-18T08:53:21.387Z,3.72
2017-01-18T08:54:01.908Z,3.88
2017-01-18T08:54:42.416Z,4.05
2017-01-18T08:55:23.208Z,4.04
2017-01-18T08:56:03.743Z,4.02
2017-01-18T08:56:44.216Z,3.86
2017-01-18T08:57:24.685Z,3.98
2017-01-18T08:58:05.148Z,3.97
2017-01-18T08:58:45.697Z,3.86
2017-01-18T08:59:26.150Z,3.69
2017-01-18T09:00:06.665Z,3.62
2017-01-18T09:00:47.134Z,3.4
2017-01-18T09:01:27.622Z,3.52
2017-01-18T09:02:08.190Z,3.54
2017-01-18T09:02:48.621Z,3.61
2017-01-18T09:03:29.244Z,3.62
2017-01-18T09:04:09.755Z,3.55
2017-01-18T09:04:50.946Z,3.4
2017-01-18T09:05:31.461Z,3.52
2017-01-18T09:06:11.989Z,3.23
2017-01-18T09:06:52.517Z,3.26
2017-01-18T09:07:32.990Z,3.39
2017-01-18T09:08:13.520Z,3.28